Mobile, Alabama
Current Conditions -  °F | °C
As of 9:53 AM on Thursday 30 Oct 2014 (Local Time) from KBFM Reporting Station
Clear Clear  
Wind Chill: 65°   Ceiling: Unl
Heat Index: 65°   Visibility: 10mi
Dew Point: 49°   Wind: 15mph
Humidity: 56%   Direction: 30°NNE
Pressure: 30.12"   Gusts: 20mph
Location:  30.69°N, 88.05°W
Report Text: KBFM 301453Z 03013G17KT 10SM CLR 18/09 A3012 RMK AO2 SLP200 T01830094 51013
Loading
Personal Weather Stations






























Interactive Weather Map
Tropical Storm Tracking
New forecast layout! Learn more

10-Day Weather Forecast

Advertisements
Track Severe Weather on mobile